Airport View

Enter AWOS ICAO identifier for current METAR.

ex. KFNL

KIKV 210030Z AUTO 16004KT 10SM CLR 26/20 A2997 RMK AO2

21 Sep 2019 00:34

Frequency: 119.175

Phone: 515-965-5764

Other Area AWOS: KDSM - KAMW - KTNU - KBNW

TAF AMD KDSM 210005Z 2100/2124 15010KT P6SM SCT050 FM210100 16008KT P6SM FEW250 FM210700 17009KT P6SM VCSH SCT011 BKN030 FM211100 18012G18KT 5SM -TSRA SCT008 OVC011CB FM211500 20015G26KT P6SM VCSH OVC015 FM212100 20014G25KT 5SM -TSRA OVC020CB